Wetterdaten: Woche 06.07.09 - 12.07.09 (KW28)
Datum Zeit Temperatur Luftfeuchte Luftdruck Niederschlag Wind Richtung Sonnenschein Solar Taupunkt Windchill Windben
06.07.2009 00:00 17.2 C 97 % 1010.2 hPa 0.6 l/m 1.1 km/h (0 Bft) S-SO 0.00 h 0 W/m 16.7 C 17.2 C 2.7 km/h (1 Bft)
06.07.2009 01:00 17.2 C 97 % 1010.1 hPa 3.0 l/m 0.8 km/h (0 Bft) S-SO 0.00 h 0 W/m 16.7 C 17.2 C 1.8 km/h (1 Bft)
06.07.2009 02:00 17.1 C 98 % 1009.9 hPa 1.8 l/m 0.1 km/h (0 Bft) S-SO 0.00 h 0 W/m 16.8 C 17.1 C 0.9 km/h (0 Bft)
06.07.2009 03:00 17.1 C 98 % 1009.5 hPa 0.4 l/m 0.7 km/h (0 Bft) S-SO 0.00 h 0 W/m 16.8 C 17.1 C 1.4 km/h (1 Bft)
06.07.2009 04:00 17.2 C 99 % 1009.4 hPa 0.0 l/m 0.4 km/h (0 Bft) SO 0.00 h 0 W/m 17.0 C 17.2 C 1.5 km/h (1 Bft)
06.07.2009 05:00 17.2 C 99 % 1009.5 hPa 0.2 l/m 0.9 km/h (0 Bft) S-SO 0.00 h 5 W/m 17.0 C 17.2 C 2.8 km/h (1 Bft)
06.07.2009 06:00 17.1 C 99 % 1009.6 hPa 0.0 l/m 1.2 km/h (1 Bft) S-SO 0.00 h 19 W/m 17.0 C 17.1 C 3.7 km/h (1 Bft)
06.07.2009 07:00 17.6 C 99 % 1009.8 hPa 0.0 l/m 1.2 km/h (1 Bft) S-SO 0.00 h 81 W/m 17.4 C 17.6 C 3.7 km/h (1 Bft)
06.07.2009 08:00 18.4 C 99 % 1010.3 hPa 0.0 l/m 2.3 km/h (1 Bft) W-NW 0.00 h 181 W/m 18.2 C 18.4 C 5.0 km/h (1 Bft)
06.07.2009 09:00 18.9 C 98 % 1010.7 hPa 0.0 l/m 3.9 km/h (1 Bft) W-SW 0.07 h 261 W/m 18.6 C 18.9 C 7.5 km/h (2 Bft)
06.07.2009 10:00 19.8 C 91 % 1010.7 hPa 0.0 l/m 6.8 km/h (2 Bft) W 0.48 h 404 W/m 18.3 C 19.8 C 11.1 km/h (2 Bft)
06.07.2009 11:00 19.8 C 86 % 1010.7 hPa 0.0 l/m 4.9 km/h (1 Bft) W 0.02 h 279 W/m 17.4 C 19.8 C 8.2 km/h (2 Bft)
06.07.2009 12:00 21.8 C 76 % 1010.6 hPa 0.2 l/m 5.4 km/h (1 Bft) W 0.37 h 568 W/m 17.3 C 21.8 C 9.6 km/h (2 Bft)
06.07.2009 13:00 23.0 C 67 % 1010.0 hPa 0.0 l/m 5.6 km/h (1 Bft) W 0.48 h 642 W/m 16.5 C 23.0 C 9.4 km/h (2 Bft)
06.07.2009 14:00 24.8 C 53 % 1009.2 hPa 0.0 l/m 9.1 km/h (2 Bft) W 0.97 h 853 W/m 14.7 C 24.8 C 15.0 km/h (3 Bft)
06.07.2009 15:00 25.0 C 51 % 1009.0 hPa 0.0 l/m 9.4 km/h (2 Bft) W 0.55 h 579 W/m 14.1 C 25.0 C 15.4 km/h (3 Bft)
06.07.2009 16:00 25.4 C 48 % 1008.7 hPa 0.0 l/m 10.6 km/h (2 Bft) W 0.85 h 657 W/m 13.6 C 25.4 C 16.9 km/h (3 Bft)
06.07.2009 17:00 25.7 C 45 % 1008.4 hPa 0.0 l/m 10.9 km/h (2 Bft) W 0.93 h 531 W/m 12.7 C 25.7 C 17.1 km/h (3 Bft)
06.07.2009 18:00 25.8 C 43 % 1008.1 hPa 0.0 l/m 9.0 km/h (2 Bft) W 0.93 h 382 W/m 12.1 C 25.8 C 13.5 km/h (3 Bft)
06.07.2009 19:00 25.8 C 44 % 1008.1 hPa 0.0 l/m 6.4 km/h (2 Bft) W 0.95 h 201 W/m 12.6 C 25.8 C 10.1 km/h (2 Bft)
06.07.2009 20:00 25.0 C 50 % 1008.1 hPa 0.0 l/m 2.4 km/h (1 Bft) W 0.37 h 64 W/m 13.8 C 25.0 C 4.7 km/h (1 Bft)
06.07.2009 21:00 22.7 C 60 % 1008.5 hPa 0.0 l/m 0.6 km/h (0 Bft) W 0.05 h 10 W/m 14.6 C 22.7 C 1.9 km/h (1 Bft)
06.07.2009 22:00 20.5 C 64 % 1009.3 hPa 0.0 l/m 6.5 km/h (2 Bft) W-NW 0.00 h 0 W/m 13.5 C 20.5 C 10.7 km/h (2 Bft)
06.07.2009 23:00 19.7 C 65 % 1009.6 hPa 0.0 l/m 7.7 km/h (2 Bft) W 0.00 h 0 W/m 13.1 C 19.7 C 12.1 km/h (2 Bft)
07.07.2009 00:00 18.7 C 69 % 1009.9 hPa 0.0 l/m 4.8 km/h (1 Bft) W 0.00 h 0 W/m 12.9 C 18.7 C 7.5 km/h (2 Bft)
07.07.2009 01:00 17.5 C 76 % 1009.9 hPa 0.0 l/m 4.5 km/h (1 Bft) O-SO 0.00 h 0 W/m 13.3 C 17.5 C 6.2 km/h (2 Bft)
07.07.2009 02:00 16.8 C 80 % 1009.8 hPa 0.0 l/m 4.1 km/h (1 Bft) SO 0.00 h 0 W/m 13.3 C 16.8 C 5.7 km/h (1 Bft)
07.07.2009 03:00 15.9 C 84 % 1009.7 hPa 0.0 l/m 2.5 km/h (1 Bft) O-SO 0.00 h 0 W/m 13.2 C 15.9 C 3.8 km/h (1 Bft)
07.07.2009 04:00 15.6 C 86 % 1009.5 hPa 0.0 l/m 0.0 km/h (0 Bft) N 0.00 h 0 W/m 13.3 C 15.6 C 0.2 km/h (0 Bft)
07.07.2009 05:00 15.2 C 88 % 1009.4 hPa 0.0 l/m 0.1 km/h (0 Bft) O-SO 0.00 h 7 W/m 13.2 C 15.2 C 0.5 km/h (0 Bft)
07.07.2009 06:00 15.2 C 90 % 1009.5 hPa 0.0 l/m 1.2 km/h (1 Bft) W 0.00 h 30 W/m 13.5 C 15.2 C 2.6 km/h (1 Bft)
07.07.2009 07:00 15.5 C 89 % 1009.7 hPa 0.2 l/m 4.2 km/h (1 Bft) W-NW 0.00 h 24 W/m 13.6 C 15.5 C 7.2 km/h (2 Bft)
07.07.2009 08:00 15.6 C 88 % 1010.4 hPa 2.0 l/m 1.2 km/h (1 Bft) W 0.00 h 31 W/m 13.7 C 15.6 C 2.8 km/h (1 Bft)
07.07.2009 09:00 15.6 C 92 % 1010.6 hPa 0.8 l/m 1.9 km/h (1 Bft) W-SW 0.00 h 113 W/m 14.3 C 15.6 C 3.8 km/h (1 Bft)
07.07.2009 10:00 16.1 C 93 % 1010.8 hPa 0.2 l/m 0.7 km/h (0 Bft) S-SO 0.00 h 185 W/m 14.9 C 16.1 C 2.8 km/h (1 Bft)
07.07.2009 11:00 16.9 C 91 % 1010.8 hPa 0.0 l/m 2.1 km/h (1 Bft) S-SO 0.00 h 217 W/m 15.3 C 16.9 C 5.2 km/h (1 Bft)
07.07.2009 12:00 17.8 C 87 % 1010.7 hPa 0.0 l/m 3.0 km/h (1 Bft) S 0.25 h 366 W/m 15.6 C 17.8 C 6.4 km/h (2 Bft)
07.07.2009 13:00 18.9 C 78 % 1010.0 hPa 0.0 l/m 4.2 km/h (1 Bft) S-SO 0.32 h 390 W/m 15.0 C 18.9 C 8.7 km/h (2 Bft)
07.07.2009 14:00 18.8 C 79 % 1009.7 hPa 0.0 l/m 2.0 km/h (1 Bft) W-SW 0.02 h 260 W/m 15.1 C 18.8 C 4.9 km/h (1 Bft)
07.07.2009 15:00 19.6 C 74 % 1008.9 hPa 0.0 l/m 4.3 km/h (1 Bft) W 0.50 h 493 W/m 14.7 C 19.6 C 7.7 km/h (2 Bft)
07.07.2009 16:00 19.5 C 66 % 1008.6 hPa 0.0 l/m 5.5 km/h (1 Bft) W 0.10 h 268 W/m 12.9 C 19.5 C 9.7 km/h (2 Bft)
07.07.2009 17:00 20.0 C 63 % 1008.5 hPa 0.6 l/m 14.0 km/h (3 Bft) W 0.23 h 219 W/m 12.8 C 20.0 C 22.2 km/h (4 Bft)
07.07.2009 18:00 16.5 C 80 % 1009.4 hPa 0.0 l/m 13.9 km/h (3 Bft) W 0.78 h 328 W/m 12.9 C 16.5 C 21.0 km/h (4 Bft)
07.07.2009 19:00 16.5 C 73 % 1009.8 hPa 0.0 l/m 10.5 km/h (2 Bft) W 0.50 h 154 W/m 11.7 C 16.5 C 16.2 km/h (3 Bft)
07.07.2009 20:00 16.4 C 74 % 1010.2 hPa 0.0 l/m 3.7 km/h (1 Bft) W 0.05 h 46 W/m 11.8 C 16.4 C 6.6 km/h (2 Bft)
07.07.2009 21:00 15.1 C 82 % 1011.2 hPa 0.0 l/m 3.6 km/h (1 Bft) O-SO 0.00 h 8 W/m 12.0 C 15.1 C 5.3 km/h (1 Bft)
07.07.2009 22:00 14.3 C 87 % 1011.7 hPa 0.0 l/m 3.7 km/h (1 Bft) SO 0.00 h 0 W/m 12.1 C 14.3 C 5.7 km/h (1 Bft)
07.07.2009 23:00 13.8 C 88 % 1011.9 hPa 0.0 l/m 2.1 km/h (1 Bft) SO 0.00 h 0 W/m 11.9 C 13.8 C 3.6 km/h (1 Bft)
08.07.2009 00:00 13.3 C 89 % 1011.7 hPa 0.0 l/m 1.2 km/h (1 Bft) SO 0.00 h 0 W/m 11.6 C 13.3 C 2.2 km/h (1 Bft)
08.07.2009 01:00 12.9 C 91 % 1011.8 hPa 0.0 l/m 0.5 km/h (0 Bft) SO 0.00 h 0 W/m 11.4 C 12.9 C 1.6 km/h (1 Bft)
08.07.2009 02:00 13.0 C 92 % 1011.8 hPa 0.0 l/m 1.1 km/h (1 Bft) SO 0.00 h 0 W/m 11.7 C 13.0 C 2.3 km/h (1 Bft)
08.07.2009 03:00 13.2 C 91 % 1011.5 hPa 0.4 l/m 2.8 km/h (1 Bft) SO 0.00 h 0 W/m 11.8 C 13.2 C 4.8 km/h (1 Bft)
08.07.2009 04:00 12.8 C 92 % 1012.2 hPa 3.0 l/m 4.5 km/h (1 Bft) W-NW 0.00 h 0 W/m 11.5 C 12.8 C 7.8 km/h (2 Bft)
08.07.2009 05:00 12.2 C 93 % 1012.3 hPa 0.0 l/m 1.0 km/h (0 Bft) SO 0.00 h 0 W/m 11.2 C 12.2 C 2.3 km/h (1 Bft)
08.07.2009 06:00 12.4 C 95 % 1012.4 hPa 0.0 l/m 2.2 km/h (1 Bft) SW 0.00 h 20 W/m 11.7 C 12.4 C 5.4 km/h (1 Bft)
08.07.2009 07:00 12.8 C 96 % 1012.8 hPa 0.2 l/m 3.7 km/h (1 Bft) S-SO 0.08 h 77 W/m 12.1 C 12.8 C 8.1 km/h (2 Bft)
08.07.2009 08:00 13.2 C 95 % 1013.3 hPa 0.0 l/m 2.4 km/h (1 Bft) S-SO 0.00 h 126 W/m 12.5 C 13.2 C 5.7 km/h (1 Bft)
08.07.2009 09:00 14.7 C 92 % 1013.5 hPa 0.0 l/m 2.5 km/h (1 Bft) W-SW 0.03 h 170 W/m 13.4 C 14.7 C 5.9 km/h (2 Bft)
08.07.2009 10:00 15.2 C 84 % 1013.6 hPa 0.0 l/m 10.3 km/h (2 Bft) W 0.03 h 237 W/m 12.4 C 15.2 C 16.9 km/h (3 Bft)
08.07.2009 11:00 16.4 C 73 % 1013.7 hPa 0.0 l/m 12.1 km/h (2 Bft) W 0.33 h 422 W/m 11.5 C 16.4 C 18.8 km/h (3 Bft)
08.07.2009 12:00 17.5 C 67 % 1013.9 hPa 0.0 l/m 11.5 km/h (2 Bft) W 0.28 h 458 W/m 11.2 C 17.5 C 18.3 km/h (3 Bft)
08.07.2009 13:00 18.2 C 60 % 1013.8 hPa 0.0 l/m 11.2 km/h (2 Bft) W 0.15 h 347 W/m 10.3 C 18.2 C 17.6 km/h (3 Bft)
08.07.2009 14:00 18.1 C 65 % 1013.8 hPa 0.2 l/m 8.2 km/h (2 Bft) W 0.13 h 327 W/m 11.4 C 18.1 C 13.4 km/h (3 Bft)
08.07.2009 15:00 17.7 C 72 % 1013.8 hPa 0.0 l/m 4.8 km/h (1 Bft) W 0.00 h 240 W/m 12.4 C 17.7 C 8.1 km/h (2 Bft)
08.07.2009 16:00 19.2 C 61 % 1013.9 hPa 0.0 l/m 9.5 km/h (2 Bft) W 0.80 h 526 W/m 11.5 C 19.2 C 15.8 km/h (3 Bft)
08.07.2009 17:00 19.4 C 55 % 1013.9 hPa 0.0 l/m 12.5 km/h (3 Bft) W 0.38 h 289 W/m 10.0 C 19.4 C 19.8 km/h (4 Bft)
08.07.2009 18:00 18.2 C 64 % 1014.4 hPa 0.0 l/m 10.8 km/h (2 Bft) W 0.50 h 241 W/m 11.3 C 18.2 C 16.2 km/h (3 Bft)
08.07.2009 19:00 18.2 C 66 % 1014.7 hPa 0.0 l/m 6.1 km/h (2 Bft) W 0.53 h 160 W/m 11.8 C 18.2 C 10.0 km/h (2 Bft)
08.07.2009 20:00 18.5 C 60 % 1014.9 hPa 0.0 l/m 5.2 km/h (1 Bft) W 0.28 h 68 W/m 10.7 C 18.5 C 8.8 km/h (2 Bft)
08.07.2009 21:00 16.8 C 65 % 1015.5 hPa 0.0 l/m 5.4 km/h (1 Bft) W 0.00 h 9 W/m 10.3 C 16.8 C 8.6 km/h (2 Bft)
08.07.2009 22:00 15.2 C 74 % 1016.4 hPa 0.2 l/m 4.6 km/h (1 Bft) W-NW 0.00 h 0 W/m 10.7 C 15.2 C 8.1 km/h (2 Bft)
08.07.2009 23:00 14.0 C 83 % 1016.9 hPa 0.0 l/m 0.9 km/h (0 Bft) NO 0.00 h 0 W/m 11.1 C 14.0 C 2.3 km/h (1 Bft)
09.07.2009 00:00 13.7 C 85 % 1017.1 hPa 0.2 l/m 2.1 km/h (1 Bft) W 0.00 h 0 W/m 11.1 C 13.7 C 4.7 km/h (1 Bft)
09.07.2009 01:00 13.4 C 89 % 1016.9 hPa 0.8 l/m 0.7 km/h (0 Bft) S-SW 0.00 h 0 W/m 11.5 C 13.4 C 1.9 km/h (1 Bft)
09.07.2009 02:00 13.1 C 92 % 1016.5 hPa 0.2 l/m 1.3 km/h (1 Bft) S-SO 0.00 h 0 W/m 11.7 C 13.1 C 2.8 km/h (1 Bft)
09.07.2009 03:00 12.9 C 93 % 1016.5 hPa 1.2 l/m 3.2 km/h (1 Bft) S-SO 0.00 h 0 W/m 11.9 C 12.9 C 6.2 km/h (2 Bft)
09.07.2009 04:00 12.8 C 95 % 1016.1 hPa 2.6 l/m 0.6 km/h (0 Bft) SO 0.00 h 0 W/m 12.0 C 12.8 C 1.9 km/h (1 Bft)
09.07.2009 05:00 12.7 C 95 % 1016.0 hPa 0.6 l/m 0.4 km/h (0 Bft) SO 0.00 h 6 W/m 11.9 C 12.7 C 1.2 km/h (1 Bft)
09.07.2009 06:00 12.7 C 96 % 1016.1 hPa 0.0 l/m 0.9 km/h (0 Bft) S-SO 0.00 h 32 W/m 12.1 C 12.7 C 2.9 km/h (1 Bft)
09.07.2009 07:00 12.9 C 97 % 1016.2 hPa 0.0 l/m 0.2 km/h (0 Bft) S-SO 0.00 h 34 W/m 12.5 C 12.9 C 1.1 km/h (0 Bft)
09.07.2009 08:00 13.3 C 97 % 1016.5 hPa 0.2 l/m 1.0 km/h (0 Bft) S-SO 0.05 h 121 W/m 12.9 C 13.3 C 2.8 km/h (1 Bft)
09.07.2009 09:00 15.5 C 95 % 1016.4 hPa 0.0 l/m 1.6 km/h (1 Bft) W-SW 0.78 h 448 W/m 14.6 C 15.5 C 4.7 km/h (1 Bft)
09.07.2009 10:00 17.1 C 85 % 1016.2 hPa 0.0 l/m 2.2 km/h (1 Bft) S-SO 0.43 h 461 W/m 14.6 C 17.1 C 4.8 km/h (1 Bft)
09.07.2009 11:00 17.1 C 81 % 1016.1 hPa 0.0 l/m 7.7 km/h (2 Bft) W 0.40 h 485 W/m 13.8 C 17.1 C 13.7 km/h (3 Bft)
09.07.2009 12:00 18.1 C 76 % 1015.9 hPa 0.0 l/m 3.5 km/h (1 Bft) S-SO 0.32 h 530 W/m 13.8 C 18.1 C 7.2 km/h (2 Bft)
09.07.2009 13:00 17.7 C 77 % 1015.8 hPa 0.2 l/m 5.0 km/h (1 Bft) S-SO 0.03 h 227 W/m 13.5 C 17.7 C 10.8 km/h (2 Bft)
09.07.2009 14:00 16.5 C 84 % 1015.9 hPa 0.0 l/m 4.4 km/h (1 Bft) S-SO 0.20 h 452 W/m 13.7 C 16.5 C 9.3 km/h (2 Bft)
09.07.2009 15:00 17.7 C 78 % 1015.7 hPa 0.0 l/m 4.4 km/h (1 Bft) SW 0.07 h 193 W/m 13.7 C 17.7 C 8.9 km/h (2 Bft)
09.07.2009 16:00 17.3 C 78 % 1015.5 hPa 0.0 l/m 3.1 km/h (1 Bft) S-SO 0.45 h 379 W/m 13.5 C 17.3 C 6.8 km/h (2 Bft)
09.07.2009 17:00 20.3 C 67 % 1014.6 hPa 0.0 l/m 5.0 km/h (1 Bft) W-SW 0.68 h 440 W/m 13.9 C 20.3 C 8.8 km/h (2 Bft)
09.07.2009 18:00 17.9 C 70 % 1015.2 hPa 0.4 l/m 8.6 km/h (2 Bft) W 0.00 h 75 W/m 12.4 C 17.9 C 14.3 km/h (3 Bft)
09.07.2009 19:00 15.3 C 85 % 1015.5 hPa 0.0 l/m 3.4 km/h (1 Bft) SO 0.00 h 86 W/m 12.8 C 15.3 C 5.9 km/h (2 Bft)
09.07.2009 20:00 15.0 C 87 % 1015.4 hPa 0.0 l/m 3.5 km/h (1 Bft) S-SO 0.00 h 33 W/m 12.8 C 15.0 C 6.2 km/h (2 Bft)
09.07.2009 21:00 14.6 C 89 % 1015.7 hPa 0.0 l/m 5.0 km/h (1 Bft) S-SO 0.00 h 6 W/m 12.8 C 14.6 C 8.5 km/h (2 Bft)
09.07.2009 22:00 14.2 C 90 % 1016.3 hPa 0.2 l/m 2.5 km/h (1 Bft) O-SO 0.00 h 0 W/m 12.6 C 14.2 C 5.4 km/h (1 Bft)
09.07.2009 23:00 13.9 C 91 % 1016.3 hPa 0.0 l/m 1.1 km/h (1 Bft) S-SO 0.00 h 0 W/m 12.4 C 13.9 C 2.7 km/h (1 Bft)
10.07.2009 00:00 13.4 C 92 % 1016.5 hPa 0.0 l/m 1.3 km/h (1 Bft) SO 0.00 h 0 W/m 12.1 C 13.4 C 2.4 km/h (1 Bft)
10.07.2009 01:00 12.9 C 93 % 1016.7 hPa 0.0 l/m 2.4 km/h (1 Bft) O-SO 0.00 h 0 W/m 11.9 C 12.9 C 3.9 km/h (1 Bft)
10.07.2009 02:00 12.6 C 94 % 1016.4 hPa 0.0 l/m 1.7 km/h (1 Bft) O-SO 0.00 h 0 W/m 11.6 C 12.6 C 3.3 km/h (1 Bft)
10.07.2009 03:00 12.3 C 94 % 1016.3 hPa 0.0 l/m 3.6 km/h (1 Bft) O 0.00 h 0 W/m 11.3 C 12.3 C 5.2 km/h (1 Bft)
10.07.2009 04:00 12.0 C 92 % 1016.4 hPa 0.0 l/m 2.5 km/h (1 Bft) SO 0.00 h 0 W/m 10.7 C 12.0 C 4.1 km/h (1 Bft)
10.07.2009 05:00 11.8 C 92 % 1016.3 hPa 0.0 l/m 2.4 km/h (1 Bft) O-SO 0.00 h 6 W/m 10.5 C 11.8 C 3.7 km/h (1 Bft)
10.07.2009 06:00 11.9 C 91 % 1016.8 hPa 0.0 l/m 0.4 km/h (0 Bft) O-SO 0.00 h 24 W/m 10.6 C 11.9 C 1.2 km/h (1 Bft)
10.07.2009 07:00 12.5 C 92 % 1016.9 hPa 0.0 l/m 0.0 km/h (0 Bft) N 0.00 h 76 W/m 11.3 C 12.5 C 0.0 km/h (0 Bft)
10.07.2009 08:00 13.7 C 90 % 1016.9 hPa 0.0 l/m 0.4 km/h (0 Bft) S-SO 0.23 h 221 W/m 12.1 C 13.7 C 1.4 km/h (1 Bft)
10.07.2009 09:00 16.2 C 73 % 1016.8 hPa 0.0 l/m 5.2 km/h (1 Bft) W 0.77 h 433 W/m 11.2 C 16.2 C 9.1 km/h (2 Bft)
10.07.2009 10:00 17.1 C 65 % 1016.7 hPa 0.0 l/m 10.3 km/h (2 Bft) W 0.57 h 525 W/m 10.4 C 17.1 C 16.9 km/h (3 Bft)
10.07.2009 11:00 17.6 C 62 % 1016.7 hPa 0.0 l/m 11.7 km/h (2 Bft) W 0.23 h 390 W/m 10.3 C 17.6 C 18.7 km/h (3 Bft)
10.07.2009 12:00 18.4 C 59 % 1016.6 hPa 0.0 l/m 11.4 km/h (2 Bft) W 0.53 h 645 W/m 10.3 C 18.4 C 18.2 km/h (3 Bft)
10.07.2009 13:00 19.4 C 48 % 1016.2 hPa 0.0 l/m 14.4 km/h (3 Bft) W 0.60 h 710 W/m 8.0 C 19.4 C 23.0 km/h (4 Bft)
10.07.2009 14:00 19.7 C 46 % 1016.0 hPa 0.0 l/m 14.6 km/h (3 Bft) W 0.42 h 519 W/m 7.8 C 19.7 C 22.6 km/h (4 Bft)
10.07.2009 15:00 19.7 C 48 % 1016.0 hPa 0.0 l/m 10.8 km/h (2 Bft) W 0.42 h 518 W/m 8.3 C 19.7 C 16.9 km/h (3 Bft)
10.07.2009 16:00 19.6 C 49 % 1016.1 hPa 0.0 l/m 13.1 km/h (3 Bft) W 0.25 h 343 W/m 8.7 C 19.6 C 20.8 km/h (4 Bft)
10.07.2009 17:00 20.4 C 48 % 1016.1 hPa 0.0 l/m 12.6 km/h (3 Bft) W 0.92 h 556 W/m 9.0 C 20.4 C 19.6 km/h (3 Bft)
10.07.2009 18:00 20.4 C 51 % 1016.1 hPa 0.0 l/m 12.4 km/h (3 Bft) W 0.85 h 346 W/m 9.8 C 20.4 C 18.8 km/h (3 Bft)
10.07.2009 19:00 20.1 C 53 % 1016.3 hPa 0.0 l/m 8.2 km/h (2 Bft) W 0.67 h 181 W/m 10.3 C 20.1 C 12.9 km/h (3 Bft)
10.07.2009 20:00 18.8 C 55 % 1016.4 hPa 0.0 l/m 5.9 km/h (2 Bft) W 0.00 h 34 W/m 9.7 C 18.8 C 10.1 km/h (2 Bft)
10.07.2009 21:00 17.3 C 61 % 1016.7 hPa 0.0 l/m 4.7 km/h (1 Bft) W 0.00 h 9 W/m 9.7 C 17.3 C 7.6 km/h (2 Bft)
10.07.2009 22:00 15.9 C 68 % 1017.1 hPa 0.0 l/m 0.9 km/h (0 Bft) W-NW 0.00 h 0 W/m 10.1 C 15.9 C 2.3 km/h (1 Bft)
10.07.2009 23:00 14.8 C 75 % 1017.4 hPa 0.0 l/m 1.7 km/h (1 Bft) O-SO 0.00 h 0 W/m 10.4 C 14.8 C 2.9 km/h (1 Bft)
11.07.2009 00:00 14.2 C 78 % 1017.5 hPa 0.0 l/m 0.0 km/h (0 Bft) O-SO 0.00 h 0 W/m 10.5 C 14.2 C 0.3 km/h (0 Bft)
11.07.2009 01:00 13.4 C 82 % 1017.7 hPa 0.0 l/m 0.0 km/h (0 Bft) N 0.00 h 0 W/m 10.3 C 13.4 C 0.1 km/h (0 Bft)
11.07.2009 02:00 13.0 C 84 % 1018.2 hPa 0.0 l/m 0.4 km/h (0 Bft) O-SO 0.00 h 0 W/m 10.3 C 13.0 C 0.7 km/h (0 Bft)
11.07.2009 03:00 12.6 C 87 % 1017.9 hPa 0.0 l/m 0.0 km/h (0 Bft) N 0.00 h 0 W/m 10.4 C 12.6 C 0.1 km/h (0 Bft)
11.07.2009 04:00 12.3 C 89 % 1017.7 hPa 0.0 l/m 0.8 km/h (0 Bft) O-SO 0.00 h 0 W/m 10.5 C 12.3 C 1.6 km/h (1 Bft)
11.07.2009 05:00 12.2 C 90 % 1017.6 hPa 0.0 l/m 0.1 km/h (0 Bft) O-SO 0.00 h 0 W/m 10.7 C 12.2 C 0.6 km/h (0 Bft)
11.07.2009 06:00 12.1 C 91 % 1017.7 hPa 0.0 l/m 0.0 km/h (0 Bft) N 0.00 h 20 W/m 10.7 C 12.1 C 0.1 km/h (0 Bft)
11.07.2009 07:00 12.4 C 91 % 1017.7 hPa 0.0 l/m 0.1 km/h (0 Bft) O-SO 0.00 h 52 W/m 11.0 C 12.4 C 0.5 km/h (0 Bft)
11.07.2009 08:00 13.4 C 91 % 1017.8 hPa 0.0 l/m 0.0 km/h (0 Bft) N 0.00 h 125 W/m 11.8 C 13.4 C 0.1 km/h (0 Bft)
11.07.2009 09:00 14.9 C 84 % 1017.8 hPa 0.0 l/m 1.2 km/h (1 Bft) O-SO 0.12 h 239 W/m 12.3 C 14.9 C 3.1 km/h (1 Bft)
11.07.2009 10:00 16.2 C 67 % 1018.1 hPa 0.0 l/m 5.3 km/h (1 Bft) W-SW 0.02 h 257 W/m 10.1 C 16.2 C 8.7 km/h (2 Bft)
11.07.2009 11:00 17.0 C 62 % 1018.3 hPa 0.0 l/m 6.1 km/h (2 Bft) W 0.12 h 390 W/m 9.7 C 17.0 C 10.0 km/h (2 Bft)
11.07.2009 12:00 17.6 C 57 % 1018.3 hPa 0.0 l/m 9.4 km/h (2 Bft) W 0.05 h 381 W/m 9.0 C 17.6 C 15.5 km/h (3 Bft)
11.07.2009 13:00 17.8 C 56 % 1018.3 hPa 0.0 l/m 9.2 km/h (2 Bft) W 0.00 h 367 W/m 8.8 C 17.8 C 14.4 km/h (3 Bft)
11.07.2009 14:00 18.3 C 53 % 1018.1 hPa 0.0 l/m 10.6 km/h (2 Bft) W 0.45 h 467 W/m 8.4 C 18.3 C 17.3 km/h (3 Bft)
11.07.2009 15:00 20.5 C 49 % 1017.7 hPa 0.0 l/m 9.3 km/h (2 Bft) W 0.97 h 778 W/m 9.3 C 20.5 C 15.0 km/h (3 Bft)
11.07.2009 16:00 21.9 C 47 % 1017.1 hPa 0.0 l/m 7.6 km/h (2 Bft) W 1.00 h 723 W/m 9.9 C 21.9 C 12.6 km/h (3 Bft)
11.07.2009 17:00 22.2 C 45 % 1016.9 hPa 0.0 l/m 7.7 km/h (2 Bft) W 0.78 h 466 W/m 9.6 C 22.2 C 12.3 km/h (3 Bft)
11.07.2009 18:00 22.4 C 45 % 1016.4 hPa 0.0 l/m 5.4 km/h (1 Bft) W 0.83 h 345 W/m 9.9 C 22.4 C 9.0 km/h (2 Bft)
11.07.2009 19:00 22.6 C 44 % 1016.2 hPa 0.0 l/m 3.4 km/h (1 Bft) W-NW 1.00 h 215 W/m 9.9 C 22.6 C 5.9 km/h (2 Bft)
11.07.2009 20:00 21.4 C 50 % 1016.0 hPa 0.0 l/m 1.6 km/h (1 Bft) W-SW 0.20 h 52 W/m 10.4 C 21.4 C 3.2 km/h (1 Bft)
11.07.2009 21:00 18.3 C 64 % 1016.4 hPa 0.0 l/m 2.9 km/h (1 Bft) O-SO 0.00 h 8 W/m 11.4 C 18.3 C 4.5 km/h (1 Bft)
11.07.2009 22:00 15.1 C 78 % 1017.0 hPa 0.0 l/m 3.1 km/h (1 Bft) SO 0.00 h 0 W/m 11.2 C 15.1 C 4.6 km/h (1 Bft)
11.07.2009 23:00 13.6 C 83 % 1016.9 hPa 0.0 l/m 3.4 km/h (1 Bft) O-SO 0.00 h 0 W/m 10.8 C 13.6 C 4.9 km/h (1 Bft)
12.07.2009 00:00 12.7 C 86 % 1016.7 hPa 0.0 l/m 1.1 km/h (0 Bft) O-SO 0.00 h 0 W/m 10.4 C 12.7 C 2.1 km/h (1 Bft)
12.07.2009 01:00 12.0 C 88 % 1016.5 hPa 0.0 l/m 0.6 km/h (0 Bft) O-SO 0.00 h 0 W/m 10.1 C 12.0 C 1.1 km/h (1 Bft)
12.07.2009 02:00 11.3 C 90 % 1016.1 hPa 0.0 l/m 0.5 km/h (0 Bft) O-SO 0.00 h 0 W/m 9.7 C 11.3 C 1.5 km/h (1 Bft)
12.07.2009 03:00 10.8 C 92 % 1015.5 hPa 0.0 l/m 0.9 km/h (0 Bft) O-SO 0.00 h 0 W/m 9.6 C 10.8 C 2.3 km/h (1 Bft)
12.07.2009 04:00 10.6 C 93 % 1015.3 hPa 0.0 l/m 0.1 km/h (0 Bft) O-SO 0.00 h 0 W/m 9.5 C 10.6 C 0.5 km/h (0 Bft)
12.07.2009 05:00 10.4 C 95 % 1015.1 hPa 0.0 l/m 0.1 km/h (0 Bft) O-SO 0.00 h 6 W/m 9.6 C 10.4 C 0.4 km/h (0 Bft)
12.07.2009 06:00 10.8 C 96 % 1015.4 hPa 0.0 l/m 0.3 km/h (0 Bft) O-SO 0.00 h 21 W/m 10.1 C 10.8 C 0.9 km/h (0 Bft)
12.07.2009 07:00 11.6 C 96 % 1015.1 hPa 0.0 l/m 0.2 km/h (0 Bft) O-SO 0.00 h 74 W/m 11.0 C 11.6 C 0.8 km/h (0 Bft)
12.07.2009 08:00 12.7 C 96 % 1015.3 hPa 0.0 l/m 0.0 km/h (0 Bft) O-SO 0.00 h 126 W/m 12.1 C 12.7 C 0.7 km/h (0 Bft)
12.07.2009 09:00 13.9 C 93 % 1015.5 hPa 0.2 l/m 0.3 km/h (0 Bft) O-SO 0.00 h 193 W/m 12.8 C 13.9 C 1.2 km/h (1 Bft)
12.07.2009 10:00 15.6 C 88 % 1015.0 hPa 0.0 l/m 0.3 km/h (0 Bft) SW 0.03 h 236 W/m 13.6 C 15.6 C 1.5 km/h (1 Bft)
12.07.2009 11:00 17.3 C 81 % 1014.9 hPa 0.0 l/m 1.2 km/h (1 Bft) W-NW 0.17 h 331 W/m 14.0 C 17.3 C 2.9 km/h (1 Bft)
12.07.2009 12:00 18.5 C 79 % 1014.3 hPa 0.0 l/m 1.1 km/h (1 Bft) W 0.32 h 422 W/m 14.8 C 18.5 C 2.8 km/h (1 Bft)
12.07.2009 13:00 19.9 C 73 % 1013.9 hPa 0.0 l/m 1.1 km/h (1 Bft) N-NW 0.30 h 417 W/m 15.0 C 19.9 C 2.7 km/h (1 Bft)
12.07.2009 14:00 20.3 C 73 % 1013.4 hPa 0.0 l/m 2.0 km/h (1 Bft) N-NW 0.05 h 333 W/m 15.4 C 20.3 C 3.5 km/h (1 Bft)
12.07.2009 15:00 21.8 C 69 % 1013.2 hPa 0.0 l/m 1.9 km/h (1 Bft) W 0.87 h 505 W/m 15.9 C 21.8 C 3.8 km/h (1 Bft)
12.07.2009 16:00 22.4 C 68 % 1012.9 hPa 0.0 l/m 1.3 km/h (1 Bft) N 0.32 h 336 W/m 16.3 C 22.4 C 2.9 km/h (1 Bft)
12.07.2009 17:00 23.1 C 66 % 1012.6 hPa 0.0 l/m 0.9 km/h (0 Bft) N-NW 0.23 h 275 W/m 16.4 C 23.1 C 2.5 km/h (1 Bft)
12.07.2009 18:00 23.2 C 70 % 1012.6 hPa 0.0 l/m 0.9 km/h (0 Bft) NW 0.00 h 139 W/m 17.4 C 23.2 C 2.1 km/h (1 Bft)
12.07.2009 19:00 22.8 C 74 % 1012.5 hPa 0.0 l/m 0.6 km/h (0 Bft) O-SO 0.00 h 77 W/m 17.8 C 22.8 C 1.5 km/h (1 Bft)
12.07.2009 20:00 21.9 C 80 % 1012.8 hPa 0.2 l/m 0.3 km/h (0 Bft) O-SO 0.00 h 18 W/m 18.3 C 21.9 C 1.1 km/h (0 Bft)
12.07.2009 21:00 20.6 C 83 % 1013.2 hPa 0.0 l/m 0.2 km/h (0 Bft) SO 0.00 h 0 W/m 17.5 C 20.6 C 0.8 km/h (0 Bft)
12.07.2009 22:00 19.5 C 83 % 1013.9 hPa 0.2 l/m 0.8 km/h (0 Bft) NW 0.00 h 0 W/m 16.6 C 19.5 C 2.1 km/h (1 Bft)
12.07.2009 23:00 18.7 C 86 % 1013.7 hPa 0.0 l/m 1.3 km/h (1 Bft) SO 0.00 h 0 W/m 16.2 C 18.7 C 2.8 km/h (1 Bft)
Min-Datum _ 12.07.09 06.07.09 06.07.09 - 06.07.09 - - - 10.07.09 12.07.09 06.07.09
_ Min-Zeit 05:00 18:40 18:45 - 00:05 - - - 14:50 04:47 00:06
Minimum _ 10.3 C 39 % 1007.9 hPa - 0.0 km/h (0 Bft) - - - 5.8 C 10.4 C 0.0 km/h (0 Bft)
Max-Datum _ 06.07.09 06.07.09 11.07.09 06.07.09 07.07.09 - 06.07.09 06.07.09 06.07.09 06.07.09 07.07.09
_ Max-Zeit 17:24 08:15 12:30 01:51 17:47 - 09:36 12:27 10:03 17:24 17:47
Maximum _ 26.1 C 100 % 1018.4 hPa 3.0 l/m 27.8 km/h
W (4 Bft)
- 0.02 h 1164 W/m 19.5 C 26.1 C 40.0 km/h
W-NW (6 Bft)
Durchschnitt _ 16.8 C 78 % 1013.9 hPa #21.2 l/m 4.0 km/h (1 Bft) W #31:00 h 263 W/m 12.5 C 16.8 C 6.9 km/h (2 Bft)
© Kaiko 2009